createdAt,value
2023-03-16T00:00:37.958Z,7.01
2023-03-16T00:01:39.763Z,7.01
2023-03-16T00:02:42.026Z,7.01
2023-03-16T00:03:43.815Z,7.01
2023-03-16T00:04:47.494Z,7.01
2023-03-16T00:05:51.262Z,7.01
2023-03-16T00:06:53.123Z,7.02
2023-03-16T00:07:55.030Z,7.02
2023-03-16T00:08:59.133Z,7.01
2023-03-16T00:10:01.490Z,7.01
2023-03-16T00:11:03.466Z,7.01
2023-03-16T00:12:05.350Z,7.01
2023-03-16T00:13:07.144Z,7.00
2023-03-16T00:14:09.158Z,6.99
2023-03-16T00:15:12.559Z,6.99
2023-03-16T00:16:17.016Z,6.99
2023-03-16T00:17:20.923Z,6.98
2023-03-16T00:18:27.380Z,6.97
2023-03-16T00:19:29.246Z,6.96
2023-03-16T00:20:31.178Z,6.96
2023-03-16T00:21:35.236Z,6.95
2023-03-16T00:22:37.061Z,6.95
2023-03-16T00:23:38.922Z,6.94
2023-03-16T00:24:44.283Z,6.92
2023-03-16T00:25:46.147Z,6.91
2023-03-16T00:26:48.261Z,6.89
2023-03-16T00:27:50.684Z,6.89
2023-03-16T00:28:54.462Z,6.88
2023-03-16T00:29:56.921Z,6.87
2023-03-16T00:30:59.289Z,6.85
2023-03-16T00:32:01.317Z,6.83
2023-03-16T00:33:05.039Z,6.81
2023-03-16T00:34:07.022Z,6.80
2023-03-16T00:35:09.729Z,6.78
2023-03-16T00:36:11.951Z,6.76
2023-03-16T00:37:16.797Z,6.75
2023-03-16T00:38:19.924Z,6.72
2023-03-16T00:39:22.763Z,6.71
2023-03-16T00:40:24.944Z,6.68
2023-03-16T00:41:26.817Z,6.66
2023-03-16T00:42:31.474Z,6.64
2023-03-16T00:43:40.963Z,6.62
2023-03-16T00:44:43.360Z,6.60
2023-03-16T00:45:45.612Z,6.59
2023-03-16T00:46:47.768Z,6.58
2023-03-16T00:47:49.873Z,6.57
2023-03-16T00:48:51.737Z,6.56
2023-03-16T00:49:53.704Z,6.55
2023-03-16T00:50:55.488Z,6.54
2023-03-16T00:51:57.391Z,6.52
2023-03-16T00:52:59.200Z,6.51
2023-03-16T00:54:01.122Z,6.50
2023-03-16T00:55:04.860Z,6.48
2023-03-16T00:56:07.136Z,6.47
2023-03-16T00:57:09.744Z,6.45
2023-03-16T00:58:15.032Z,6.44
2023-03-16T00:59:16.967Z,6.42
2023-03-16T01:00:20.874Z,6.41
2023-03-16T01:01:22.786Z,6.40
2023-03-16T01:02:27.229Z,6.39
2023-03-16T01:03:29.771Z,6.38
2023-03-16T01:04:32.530Z,6.37
2023-03-16T01:05:34.306Z,6.36
2023-03-16T01:06:38.323Z,6.34
2023-03-16T01:07:43.073Z,6.32
2023-03-16T01:08:44.915Z,6.30
2023-03-16T01:09:46.796Z,6.29
2023-03-16T01:10:49.171Z,6.28
2023-03-16T01:11:53.974Z,6.27
2023-03-16T01:12:56.215Z,6.26
2023-03-16T01:13:58.134Z,6.25
2023-03-16T01:15:00.448Z,6.24
2023-03-16T01:16:04.038Z,6.24
2023-03-16T01:17:08.653Z,6.23
2023-03-16T01:18:10.633Z,6.23
2023-03-16T01:19:13.387Z,6.22
2023-03-16T01:20:19.349Z,6.21
2023-03-16T01:21:21.871Z,6.20
2023-03-16T01:22:23.909Z,6.20
2023-03-16T01:23:25.786Z,6.19
2023-03-16T01:24:27.969Z,6.18
2023-03-16T01:25:29.779Z,6.16
2023-03-16T01:26:32.360Z,6.16
2023-03-16T01:27:34.246Z,6.16
2023-03-16T01:28:36.276Z,6.15
2023-03-16T01:29:38.928Z,6.15
2023-03-16T01:30:40.750Z,6.14
2023-03-16T01:31:42.827Z,6.14
2023-03-16T01:32:44.703Z,6.14
2023-03-16T01:33:46.642Z,6.13
2023-03-16T01:34:48.483Z,6.13
2023-03-16T01:35:58.773Z,6.11
2023-03-16T01:37:01.482Z,6.11
2023-03-16T01:38:04.613Z,6.11
2023-03-16T01:39:06.842Z,6.11
2023-03-16T01:40:10.467Z,6.10
2023-03-16T01:41:13.753Z,6.09
2023-03-16T01:42:16.056Z,6.09
2023-03-16T01:43:19.140Z,6.09
2023-03-16T01:44:32.708Z,6.09
2023-03-16T01:46:05.555Z,6.09
2023-03-16T01:47:07.509Z,6.08
2023-03-16T01:48:09.460Z,6.08
2023-03-16T01:49:20.298Z,6.07
2023-03-16T01:50:22.726Z,6.06
2023-03-16T01:51:33.309Z,6.05
2023-03-16T01:52:37.513Z,6.04
2023-03-16T01:53:41.986Z,6.03
2023-03-16T01:54:50.345Z,6.02
2023-03-16T01:55:55.239Z,6.01
2023-03-16T01:57:02.684Z,5.99
2023-03-16T01:58:04.588Z,5.98
2023-03-16T01:59:12.118Z,5.97
2023-03-16T02:00:22.058Z,5.95
2023-03-16T02:01:24.132Z,5.94
2023-03-16T02:02:30.383Z,5.92
2023-03-16T02:03:35.679Z,5.91
2023-03-16T02:05:08.418Z,5.90
2023-03-16T02:06:15.642Z,5.88
2023-03-16T02:07:18.551Z,5.88
2023-03-16T02:08:23.000Z,5.86
2023-03-16T02:09:26.453Z,5.86
2023-03-16T02:10:29.313Z,5.85
2023-03-16T02:11:31.807Z,5.83
2023-03-16T02:12:33.878Z,5.82
2023-03-16T02:13:37.008Z,5.82
2023-03-16T02:14:38.836Z,5.81
2023-03-16T02:15:40.714Z,5.80
2023-03-16T02:16:42.750Z,5.80
2023-03-16T02:17:46.445Z,5.79
2023-03-16T02:18:49.193Z,5.78
2023-03-16T02:19:57.743Z,5.78
2023-03-16T02:21:17.947Z,5.77
2023-03-16T02:22:24.934Z,5.76
2023-03-16T02:23:26.833Z,5.76
2023-03-16T02:24:28.791Z,5.76
2023-03-16T02:25:53.133Z,5.75
2023-03-16T02:27:21.497Z,5.74
2023-03-16T02:28:58.604Z,5.73
2023-03-16T02:30:09.315Z,5.71
2023-03-16T02:31:12.597Z,5.70
2023-03-16T02:32:15.441Z,5.69
2023-03-16T02:33:18.240Z,5.68
2023-03-16T02:34:20.485Z,5.67
2023-03-16T02:35:22.604Z,5.65
2023-03-16T02:36:24.669Z,5.64
2023-03-16T02:37:27.718Z,5.63
2023-03-16T02:38:29.535Z,5.63
2023-03-16T02:39:31.423Z,5.62
2023-03-16T02:40:35.486Z,5.61
2023-03-16T02:41:37.309Z,5.61
2023-03-16T02:42:39.101Z,5.60
2023-03-16T02:43:45.665Z,5.59
2023-03-16T02:44:52.448Z,5.58
2023-03-16T02:45:57.374Z,5.57
2023-03-16T02:47:04.012Z,5.57
2023-03-16T02:48:14.661Z,5.56
2023-03-16T02:49:28.013Z,5.55
2023-03-16T02:50:30.242Z,5.54
2023-03-16T02:51:32.425Z,5.53
2023-03-16T02:52:35.961Z,5.52
2023-03-16T02:53:37.758Z,5.51
2023-03-16T02:54:39.612Z,5.50
2023-03-16T02:55:41.675Z,5.49
2023-03-16T02:56:43.464Z,5.48
2023-03-16T02:57:45.307Z,5.47
2023-03-16T02:58:47.058Z,5.46
2023-03-16T02:59:49.139Z,5.45
2023-03-16T03:00:51.072Z,5.44
2023-03-16T03:01:53.495Z,5.43
2023-03-16T03:02:55.482Z,5.42
2023-03-16T03:03:57.488Z,5.41
2023-03-16T03:04:59.280Z,5.41
2023-03-16T03:06:02.279Z,5.40
2023-03-16T03:07:05.279Z,5.39
2023-03-16T03:08:07.365Z,5.38
2023-03-16T03:09:11.638Z,5.38
2023-03-16T03:10:13.751Z,5.37
2023-03-16T03:11:15.785Z,5.37
2023-03-16T03:12:17.641Z,5.36
2023-03-16T03:13:19.435Z,5.36
2023-03-16T03:14:21.257Z,5.36
2023-03-16T03:15:23.824Z,5.35
2023-03-16T03:16:26.133Z,5.35
2023-03-16T03:17:30.015Z,5.35
2023-03-16T03:18:31.862Z,5.35
2023-03-16T03:19:34.687Z,5.35
2023-03-16T03:20:36.695Z,5.35
2023-03-16T03:21:38.569Z,5.34
2023-03-16T03:22:40.680Z,5.34
2023-03-16T03:23:42.430Z,5.34
2023-03-16T03:24:44.260Z,5.35
2023-03-16T03:25:46.224Z,5.35
2023-03-16T03:26:47.989Z,5.35
2023-03-16T03:27:51.070Z,5.35
2023-03-16T03:28:52.950Z,5.35
2023-03-16T03:29:54.757Z,5.35
2023-03-16T03:30:57.245Z,5.36
2023-03-16T03:31:59.442Z,5.36
2023-03-16T03:33:01.860Z,5.36
2023-03-16T03:34:06.682Z,5.36
2023-03-16T03:35:09.106Z,5.36
2023-03-16T03:36:11.762Z,5.36
2023-03-16T03:37:13.735Z,5.36
2023-03-16T03:38:16.460Z,5.36
2023-03-16T03:39:18.821Z,5.35
2023-03-16T03:40:21.340Z,5.35
2023-03-16T03:41:23.153Z,5.37
2023-03-16T03:42:25.129Z,5.38
2023-03-16T03:43:27.120Z,5.38
2023-03-16T03:44:28.932Z,5.38
2023-03-16T03:45:30.817Z,5.37
2023-03-16T03:46:32.724Z,5.36
2023-03-16T03:47:34.599Z,5.36
2023-03-16T03:48:36.701Z,5.35
2023-03-16T03:49:38.493Z,5.35
2023-03-16T03:50:40.895Z,5.35
2023-03-16T03:51:43.022Z,5.34
2023-03-16T03:52:45.067Z,5.34
2023-03-16T03:53:46.823Z,5.33
2023-03-16T03:54:48.629Z,5.33
2023-03-16T03:55:50.745Z,5.32
2023-03-16T03:56:52.675Z,5.32
2023-03-16T03:57:54.698Z,5.32
2023-03-16T03:58:56.454Z,5.31
2023-03-16T03:59:58.672Z,5.31
2023-03-16T04:01:01.043Z,5.31
2023-03-16T04:02:03.004Z,5.30
2023-03-16T04:03:06.454Z,5.30
2023-03-16T04:04:08.445Z,5.30
2023-03-16T04:05:10.802Z,5.31
2023-03-16T04:06:12.674Z,5.31
2023-03-16T04:07:14.499Z,5.31
2023-03-16T04:08:16.404Z,5.31
2023-03-16T04:09:18.244Z,5.31
2023-03-16T04:10:20.036Z,5.31
2023-03-16T04:11:21.971Z,5.30
2023-03-16T04:12:24.481Z,5.30
2023-03-16T04:13:26.396Z,5.30
2023-03-16T04:14:28.821Z,5.31
2023-03-16T04:15:33.007Z,5.30
2023-03-16T04:16:34.934Z,5.30
2023-03-16T04:17:36.799Z,5.29
2023-03-16T04:18:38.878Z,5.29
2023-03-16T04:19:40.763Z,5.28
2023-03-16T04:20:42.633Z,5.28
2023-03-16T04:21:44.737Z,5.28
2023-03-16T04:22:47.483Z,5.28
2023-03-16T04:23:54.234Z,5.29
2023-03-16T04:24:55.989Z,5.29
2023-03-16T04:25:57.871Z,5.29
2023-03-16T04:27:00.815Z,5.29
2023-03-16T04:28:02.638Z,5.29
2023-03-16T04:29:04.478Z,5.29
2023-03-16T04:30:08.533Z,5.28
2023-03-16T04:31:10.976Z,5.28
2023-03-16T04:32:12.960Z,5.27
2023-03-16T04:33:14.966Z,5.27
2023-03-16T04:34:16.837Z,5.26
2023-03-16T04:35:19.095Z,5.27
2023-03-16T04:36:27.217Z,5.26
2023-03-16T04:37:29.106Z,5.26
2023-03-16T04:38:35.583Z,5.26
2023-03-16T04:39:37.597Z,5.26
2023-03-16T04:40:39.543Z,5.26
2023-03-16T04:41:41.559Z,5.26
2023-03-16T04:42:45.142Z,5.26
2023-03-16T04:43:47.020Z,5.26
2023-03-16T04:44:48.890Z,5.26
2023-03-16T04:45:50.801Z,5.26
2023-03-16T04:46:52.642Z,5.26
2023-03-16T04:47:54.680Z,5.25
2023-03-16T04:48:58.375Z,5.25
2023-03-16T04:50:03.990Z,5.25
2023-03-16T04:51:06.385Z,5.24
2023-03-16T04:52:08.717Z,5.24
2023-03-16T04:53:10.509Z,5.24
2023-03-16T04:54:12.275Z,5.24
2023-03-16T04:55:14.088Z,5.24
2023-03-16T04:56:18.396Z,5.23
2023-03-16T04:57:20.383Z,5.22
2023-03-16T04:58:22.817Z,5.22
2023-03-16T04:59:24.709Z,5.22
2023-03-16T05:00:26.899Z,5.21
2023-03-16T05:01:28.932Z,5.21
2023-03-16T05:02:30.689Z,5.21
2023-03-16T05:03:32.590Z,5.21
2023-03-16T05:04:34.535Z,5.22
2023-03-16T05:05:40.006Z,5.22
2023-03-16T05:06:41.855Z,5.22
2023-03-16T05:07:45.042Z,5.22
2023-03-16T05:08:46.902Z,5.21
2023-03-16T05:09:48.877Z,5.17
2023-03-16T05:10:51.097Z,5.10
2023-03-16T05:11:52.941Z,5.10
2023-03-16T05:12:55.195Z,5.11
2023-03-16T05:13:57.044Z,5.11
2023-03-16T05:14:58.857Z,5.11
2023-03-16T05:16:01.810Z,5.11
2023-03-16T05:17:04.113Z,5.12
2023-03-16T05:18:05.937Z,5.12
2023-03-16T05:19:07.808Z,5.12
2023-03-16T05:20:16.050Z,5.12
2023-03-16T05:21:18.269Z,5.13
2023-03-16T05:22:20.225Z,5.13
2023-03-16T05:23:23.049Z,5.14
2023-03-16T05:24:24.849Z,5.14
2023-03-16T05:25:26.663Z,5.14
2023-03-16T05:26:28.792Z,5.14
2023-03-16T05:27:30.706Z,5.15
2023-03-16T05:28:32.615Z,5.14
2023-03-16T05:29:35.241Z,5.14
2023-03-16T05:30:38.036Z,5.14
2023-03-16T05:31:40.496Z,5.14
2023-03-16T05:32:42.641Z,5.13
2023-03-16T05:33:44.750Z,5.13
2023-03-16T05:34:47.057Z,5.12
2023-03-16T05:35:48.934Z,5.11
2023-03-16T05:36:51.790Z,5.11
2023-03-16T05:37:53.604Z,5.11
2023-03-16T05:38:55.573Z,5.11
2023-03-16T05:39:58.617Z,5.11
2023-03-16T05:41:04.610Z,5.11
2023-03-16T05:42:07.610Z,5.11
2023-03-16T05:43:09.721Z,5.11
2023-03-16T05:44:11.484Z,5.12
2023-03-16T05:45:14.863Z,5.12
2023-03-16T05:46:18.417Z,5.13
2023-03-16T05:47:21.566Z,5.13
2023-03-16T05:48:26.283Z,5.13
2023-03-16T05:49:28.137Z,5.14
2023-03-16T05:50:30.323Z,5.17
2023-03-16T05:51:32.559Z,5.19
2023-03-16T05:52:34.689Z,5.20
2023-03-16T05:53:36.553Z,5.21
2023-03-16T05:54:38.416Z,5.22
2023-03-16T05:55:40.209Z,5.24
2023-03-16T05:56:41.959Z,5.25
2023-03-16T05:57:44.464Z,5.26
2023-03-16T05:58:46.591Z,5.29
2023-03-16T05:59:48.864Z,5.32
2023-03-16T06:00:50.638Z,5.34
2023-03-16T06:01:53.028Z,5.37
2023-03-16T06:02:54.872Z,5.38
2023-03-16T06:03:56.837Z,5.41
2023-03-16T06:04:59.419Z,5.42
2023-03-16T06:06:02.143Z,5.44
2023-03-16T06:07:04.312Z,5.45
2023-03-16T06:08:06.112Z,5.46
2023-03-16T06:09:09.280Z,5.47
2023-03-16T06:10:12.055Z,5.48
2023-03-16T06:11:14.383Z,5.49
2023-03-16T06:12:16.206Z,5.51
2023-03-16T06:13:18.003Z,5.52
2023-03-16T06:14:19.869Z,5.56
2023-03-16T06:15:25.147Z,5.58
2023-03-16T06:16:27.433Z,5.60
2023-03-16T06:17:29.228Z,5.62
2023-03-16T06:18:31.162Z,5.66
2023-03-16T06:19:32.906Z,5.69
2023-03-16T06:20:35.538Z,5.72
2023-03-16T06:21:37.450Z,5.75
2023-03-16T06:22:44.420Z,5.77
2023-03-16T06:23:46.311Z,5.80
2023-03-16T06:24:48.292Z,5.82
2023-03-16T06:25:50.261Z,5.84
2023-03-16T06:26:52.175Z,5.85
2023-03-16T06:27:53.967Z,5.87
2023-03-16T06:28:56.296Z,5.88
2023-03-16T06:29:58.204Z,5.90
2023-03-16T06:31:00.060Z,5.92
2023-03-16T06:32:01.907Z,5.94
2023-03-16T06:33:03.775Z,5.97
2023-03-16T06:34:05.667Z,5.99
2023-03-16T06:35:08.206Z,6.00
2023-03-16T06:36:10.137Z,6.04
2023-03-16T06:37:12.269Z,6.06
2023-03-16T06:38:14.576Z,6.07
2023-03-16T06:39:16.450Z,6.08
2023-03-16T06:40:18.687Z,6.10
2023-03-16T06:41:21.211Z,6.12
2023-03-16T06:42:23.925Z,6.13
2023-03-16T06:43:25.872Z,6.14
2023-03-16T06:44:27.925Z,6.17
2023-03-16T06:45:29.853Z,6.20
2023-03-16T06:46:33.141Z,6.21
2023-03-16T06:47:35.061Z,6.23
2023-03-16T06:48:37.001Z,6.24
2023-03-16T06:49:38.974Z,6.24
2023-03-16T06:50:40.877Z,6.26
2023-03-16T06:51:42.737Z,6.29
2023-03-16T06:52:44.612Z,6.31
2023-03-16T06:53:46.435Z,6.33
2023-03-16T06:54:48.287Z,6.39
2023-03-16T06:55:50.430Z,6.41
2023-03-16T06:56:52.548Z,6.44
2023-03-16T06:57:54.398Z,6.47
2023-03-16T06:58:56.514Z,6.51
2023-03-16T06:59:58.580Z,6.56
2023-03-16T07:01:04.580Z,6.61
2023-03-16T07:02:07.100Z,6.66
2023-03-16T07:03:08.902Z,6.74
2023-03-16T07:04:12.847Z,6.81
2023-03-16T07:05:14.960Z,6.85
2023-03-16T07:06:17.319Z,6.91
2023-03-16T07:07:19.600Z,7.00
2023-03-16T07:08:21.820Z,7.04
2023-03-16T07:09:24.349Z,7.05
2023-03-16T07:10:26.441Z,7.07
2023-03-16T07:11:28.523Z,7.09
2023-03-16T07:12:30.438Z,7.12
2023-03-16T07:13:32.351Z,7.17
2023-03-16T07:14:34.170Z,7.22
2023-03-16T07:15:36.104Z,7.24
2023-03-16T07:16:40.526Z,7.26
2023-03-16T07:17:46.328Z,7.28
2023-03-16T07:18:48.191Z,7.29
2023-03-16T07:19:50.294Z,7.30
2023-03-16T07:20:53.686Z,7.31
2023-03-16T07:21:55.564Z,7.32
2023-03-16T07:22:57.483Z,7.34
2023-03-16T07:24:00.208Z,7.35
2023-03-16T07:25:02.183Z,7.35
2023-03-16T07:26:06.982Z,7.34
2023-03-16T07:27:10.810Z,7.38
2023-03-16T07:28:15.798Z,7.43
2023-03-16T07:29:18.520Z,7.44
2023-03-16T07:30:20.649Z,7.45
2023-03-16T07:31:22.647Z,7.46
2023-03-16T07:32:24.662Z,7.47
2023-03-16T07:33:26.504Z,7.50
2023-03-16T07:34:28.614Z,7.51
2023-03-16T07:35:31.322Z,7.53
2023-03-16T07:36:33.216Z,7.55
2023-03-16T07:37:37.785Z,7.56
2023-03-16T07:38:40.113Z,7.57
2023-03-16T07:39:42.164Z,7.58
2023-03-16T07:40:47.045Z,7.59
2023-03-16T07:41:49.018Z,7.61
2023-03-16T07:42:50.805Z,7.63
2023-03-16T07:43:53.461Z,7.65
2023-03-16T07:44:55.398Z,7.69
2023-03-16T07:45:57.437Z,7.73
2023-03-16T07:47:01.738Z,7.76
2023-03-16T07:48:03.638Z,7.78
2023-03-16T07:49:05.628Z,7.81
2023-03-16T07:50:08.897Z,7.86
2023-03-16T07:51:14.003Z,7.93
2023-03-16T07:52:15.844Z,8.00
2023-03-16T07:53:24.271Z,8.04
2023-03-16T07:54:32.841Z,8.07
2023-03-16T07:55:36.675Z,8.10
2023-03-16T07:56:48.242Z,8.16
2023-03-16T07:57:55.145Z,8.25
2023-03-16T07:58:59.080Z,8.32
2023-03-16T08:00:05.269Z,8.41
2023-03-16T08:01:11.926Z,8.51
2023-03-16T08:02:15.735Z,8.57
2023-03-16T08:03:18.088Z,8.62
2023-03-16T08:04:19.952Z,8.67
2023-03-16T08:05:21.817Z,8.75
2023-03-16T08:06:25.543Z,8.83
2023-03-16T08:07:30.431Z,8.90
2023-03-16T08:08:32.628Z,8.97
2023-03-16T08:09:45.747Z,9.03
2023-03-16T08:10:56.543Z,9.10
2023-03-16T08:12:15.230Z,9.14
2023-03-16T08:13:30.293Z,9.20
2023-03-16T08:14:34.527Z,9.25
2023-03-16T08:15:36.375Z,9.28
2023-03-16T08:16:41.832Z,9.30
2023-03-16T08:17:43.891Z,9.31
2023-03-16T08:18:45.982Z,9.33
2023-03-16T08:19:54.775Z,9.35
2023-03-16T08:21:01.543Z,9.37
2023-03-16T08:22:03.944Z,9.38
2023-03-16T08:23:06.113Z,9.39
2023-03-16T08:24:21.951Z,9.40
2023-03-16T08:25:26.843Z,9.40
2023-03-16T08:26:40.051Z,9.41
2023-03-16T08:27:47.692Z,9.44
2023-03-16T08:28:52.095Z,9.45
2023-03-16T08:30:05.603Z,9.47
2023-03-16T08:31:14.105Z,9.48
2023-03-16T08:32:16.342Z,9.49
2023-03-16T08:33:26.034Z,9.51
2023-03-16T08:34:33.001Z,9.52
2023-03-16T08:35:36.049Z,9.55
2023-03-16T08:36:38.172Z,9.57
2023-03-16T08:37:43.397Z,9.58
2023-03-16T08:39:03.717Z,9.60
2023-03-16T08:40:14.975Z,9.63
2023-03-16T08:41:17.416Z,9.66
2023-03-16T08:42:21.056Z,9.68
2023-03-16T08:43:24.095Z,9.70
2023-03-16T08:44:26.259Z,9.72
2023-03-16T08:45:28.710Z,9.75
2023-03-16T08:46:34.551Z,9.76
2023-03-16T08:47:37.199Z,9.78
2023-03-16T08:48:42.767Z,9.81
2023-03-16T08:49:44.971Z,9.82
2023-03-16T08:50:46.862Z,9.83
2023-03-16T08:51:49.753Z,9.89
2023-03-16T08:52:51.877Z,10.00
2023-03-16T08:53:54.256Z,10.13
2023-03-16T08:55:03.579Z,10.19
2023-03-16T08:56:08.062Z,10.23
2023-03-16T08:57:10.731Z,10.26
2023-03-16T08:58:14.025Z,10.31
2023-03-16T08:59:28.752Z,10.37
2023-03-16T09:00:31.621Z,10.45
2023-03-16T09:01:34.188Z,10.47
2023-03-16T09:02:38.833Z,10.51
2023-03-16T09:03:42.384Z,10.53
2023-03-16T09:04:44.371Z,10.55
2023-03-16T09:05:46.276Z,10.56
2023-03-16T09:07:05.786Z,10.58
2023-03-16T09:08:09.768Z,10.60
2023-03-16T09:09:11.824Z,10.62
2023-03-16T09:10:16.415Z,10.63
2023-03-16T09:11:19.578Z,10.63
2023-03-16T09:12:22.468Z,10.64
2023-03-16T09:13:24.606Z,10.66
2023-03-16T09:14:26.649Z,10.67
2023-03-16T09:15:29.255Z,10.69
2023-03-16T09:16:32.051Z,10.70
2023-03-16T09:17:34.741Z,10.72
2023-03-16T09:18:36.782Z,10.72
2023-03-16T09:19:51.442Z,10.71
2023-03-16T09:21:02.382Z,10.72
2023-03-16T09:22:05.662Z,10.74
2023-03-16T09:23:07.578Z,10.74
2023-03-16T09:24:10.255Z,10.74
2023-03-16T09:25:12.194Z,10.72
2023-03-16T09:26:15.295Z,10.73
2023-03-16T09:27:18.389Z,10.75
2023-03-16T09:28:22.108Z,10.77
2023-03-16T09:29:24.671Z,10.79
2023-03-16T09:30:26.829Z,10.81
2023-03-16T09:31:29.162Z,10.85
2023-03-16T09:32:31.311Z,10.87
2023-03-16T09:33:33.884Z,10.89
2023-03-16T09:34:35.885Z,10.92
2023-03-16T09:35:38.073Z,10.94
2023-03-16T09:36:40.873Z,10.97
2023-03-16T09:37:45.338Z,11.02
2023-03-16T09:38:57.201Z,11.07
2023-03-16T09:40:06.533Z,11.10
2023-03-16T09:41:31.637Z,11.13
2023-03-16T09:42:39.194Z,11.15
2023-03-16T09:43:56.735Z,11.15
2023-03-16T09:45:29.471Z,11.15
2023-03-16T09:46:37.348Z,11.19
2023-03-16T09:47:40.675Z,11.25
2023-03-16T09:48:42.603Z,11.28
2023-03-16T09:49:47.956Z,11.30
2023-03-16T09:50:51.097Z,11.31
2023-03-16T09:52:19.837Z,11.31
2023-03-16T09:53:29.753Z,11.42
2023-03-16T09:54:59.956Z,11.47
2023-03-16T09:56:14.199Z,11.51
2023-03-16T09:57:30.695Z,11.53
2023-03-16T09:58:33.075Z,11.56
2023-03-16T09:59:34.896Z,11.60
2023-03-16T10:00:43.536Z,11.63
2023-03-16T10:02:14.552Z,11.67
2023-03-16T10:03:44.719Z,11.69
2023-03-16T10:04:50.616Z,11.67
2023-03-16T10:06:02.278Z,11.68
2023-03-16T10:07:10.555Z,11.68
2023-03-16T10:08:16.983Z,11.68
2023-03-16T10:09:55.217Z,11.68
2023-03-16T10:11:12.507Z,11.72
2023-03-16T10:12:16.155Z,11.75
2023-03-16T10:13:30.360Z,11.77
2023-03-16T10:14:45.613Z,11.78
2023-03-16T10:15:49.607Z,11.79
2023-03-16T10:16:59.365Z,11.80
2023-03-16T10:18:11.329Z,11.78
2023-03-16T10:19:37.531Z,11.77
2023-03-16T10:20:42.057Z,11.81
2023-03-16T10:21:45.022Z,11.83
2023-03-16T10:22:50.864Z,11.85
2023-03-16T10:23:55.168Z,11.87
2023-03-16T10:25:02.684Z,11.86
2023-03-16T10:26:13.721Z,11.86
2023-03-16T10:27:22.730Z,11.88
2023-03-16T10:28:29.001Z,11.89
2023-03-16T10:29:36.443Z,11.90
2023-03-16T10:30:41.473Z,11.91
2023-03-16T10:31:44.926Z,11.95
2023-03-16T10:32:47.358Z,11.99
2023-03-16T10:33:55.759Z,12.00
2023-03-16T10:35:04.814Z,12.03
2023-03-16T10:36:34.752Z,12.05
2023-03-16T10:37:40.797Z,12.06
2023-03-16T10:38:51.253Z,12.07
2023-03-16T10:39:53.350Z,12.07
2023-03-16T10:40:58.157Z,12.07
2023-03-16T10:42:00.401Z,12.04
2023-03-16T10:43:13.197Z,12.03
2023-03-16T10:44:17.606Z,12.01
2023-03-16T10:45:27.839Z,11.98
2023-03-16T10:46:37.795Z,11.95
2023-03-16T10:47:39.658Z,11.94
2023-03-16T10:48:42.390Z,11.95
2023-03-16T10:49:49.495Z,11.98
2023-03-16T10:50:55.247Z,12.00
2023-03-16T10:52:02.888Z,12.03
2023-03-16T10:53:05.424Z,12.06
2023-03-16T10:54:14.238Z,12.09
2023-03-16T10:55:17.824Z,12.12
2023-03-16T10:56:23.452Z,12.13
2023-03-16T10:57:26.542Z,12.14
2023-03-16T10:58:33.862Z,12.17
2023-03-16T10:59:37.171Z,12.22
2023-03-16T11:00:43.539Z,12.27
2023-03-16T11:01:50.038Z,12.36
2023-03-16T11:02:55.573Z,12.44
2023-03-16T11:03:58.833Z,12.47
2023-03-16T11:05:13.074Z,12.48
2023-03-16T11:06:30.600Z,12.51
2023-03-16T11:07:33.817Z,12.56
2023-03-16T11:08:38.950Z,12.57
2023-03-16T11:09:40.968Z,12.59
2023-03-16T11:10:55.039Z,12.57
2023-03-16T11:11:57.904Z,12.55
2023-03-16T11:13:37.785Z,12.54
2023-03-16T11:14:44.518Z,12.48
2023-03-16T11:15:57.491Z,12.44
2023-03-16T11:17:04.437Z,12.44
2023-03-16T11:18:13.885Z,12.45
2023-03-16T11:19:26.068Z,12.46
2023-03-16T11:20:31.678Z,12.47
2023-03-16T11:21:41.236Z,12.50
2023-03-16T11:22:45.681Z,12.51
2023-03-16T11:23:55.184Z,12.53
2023-03-16T11:25:26.884Z,12.55
2023-03-16T11:26:40.813Z,12.56
2023-03-16T11:28:03.602Z,12.57
2023-03-16T11:29:27.884Z,12.59
2023-03-16T11:30:36.547Z,12.60
2023-03-16T11:31:43.072Z,12.63
2023-03-16T11:32:51.169Z,12.67
2023-03-16T11:33:54.373Z,12.69
2023-03-16T11:34:56.249Z,12.71
2023-03-16T11:36:32.164Z,12.74
2023-03-16T11:38:11.082Z,12.78
2023-03-16T11:39:34.674Z,12.77
2023-03-16T11:40:49.031Z,12.76
2023-03-16T11:42:16.740Z,12.78
2023-03-16T11:43:21.807Z,12.77
2023-03-16T11:44:50.556Z,12.76
2023-03-16T11:48:36.644Z,12.71
2023-03-16T11:50:03.117Z,12.75
2023-03-16T11:51:30.021Z,12.76
2023-03-16T11:52:53.253Z,12.78
2023-03-16T11:54:24.246Z,12.83
2023-03-16T11:55:53.395Z,12.86
2023-03-16T11:57:03.781Z,12.90
2023-03-16T11:58:28.293Z,12.92
2023-03-16T11:59:32.760Z,12.93
2023-03-16T12:00:51.684Z,12.94
2023-03-16T12:02:24.785Z,12.96
2023-03-16T12:03:53.890Z,12.99
2023-03-16T12:05:23.250Z,13.05
2023-03-16T12:06:30.788Z,13.07
2023-03-16T12:08:01.596Z,13.07
2023-03-16T12:09:06.571Z,13.10
2023-03-16T12:10:23.762Z,13.12
2023-03-16T12:11:50.624Z,13.16
2023-03-16T12:13:15.692Z,13.20
2023-03-16T12:14:37.607Z,13.27
2023-03-16T12:16:06.673Z,13.31
2023-03-16T12:17:31.626Z,13.35
2023-03-16T12:18:43.789Z,13.38
2023-03-16T12:19:51.435Z,13.42
2023-03-16T12:21:01.277Z,13.46
2023-03-16T12:22:15.371Z,13.45
2023-03-16T12:23:28.868Z,13.40
2023-03-16T12:24:37.194Z,13.34
2023-03-16T12:25:42.860Z,13.29
2023-03-16T12:26:46.112Z,13.31
2023-03-16T12:27:52.498Z,13.31
2023-03-16T12:28:55.389Z,13.31
2023-03-16T12:30:04.287Z,13.32
2023-03-16T12:31:44.443Z,13.34
2023-03-16T12:32:56.587Z,13.37
2023-03-16T12:34:04.679Z,13.39
2023-03-16T12:35:19.618Z,13.42
2023-03-16T12:36:46.610Z,13.45
2023-03-16T12:38:24.852Z,13.52
2023-03-16T12:39:52.785Z,13.59
2023-03-16T12:41:10.302Z,13.65
2023-03-16T12:42:47.119Z,13.69
2023-03-16T12:44:12.971Z,13.69
2023-03-16T12:45:59.353Z,13.66
2023-03-16T12:47:06.981Z,13.62
2023-03-16T12:48:27.426Z,13.58
2023-03-16T12:49:33.337Z,13.54
2023-03-16T12:50:35.834Z,13.51
2023-03-16T12:51:43.279Z,13.49
2023-03-16T12:52:46.602Z,13.45
2023-03-16T12:53:51.963Z,13.42
2023-03-16T12:55:07.698Z,13.40
2023-03-16T12:56:38.804Z,13.39
2023-03-16T12:57:42.679Z,13.43
2023-03-16T12:58:48.637Z,13.46
2023-03-16T12:59:57.325Z,13.49
2023-03-16T13:01:00.323Z,13.51
2023-03-16T13:02:04.050Z,13.53
2023-03-16T13:03:10.612Z,13.55
2023-03-16T13:04:21.772Z,13.56
2023-03-16T13:05:37.135Z,13.57
2023-03-16T13:06:44.773Z,13.57
2023-03-16T13:07:52.316Z,13.58
2023-03-16T13:09:01.198Z,13.60
2023-03-16T13:10:08.727Z,13.63
2023-03-16T13:11:12.216Z,13.66
2023-03-16T13:12:29.180Z,13.68
2023-03-16T13:13:33.163Z,13.70
2023-03-16T13:14:38.386Z,13.71
2023-03-16T13:15:41.825Z,13.71
2023-03-16T13:16:45.630Z,13.71
2023-03-16T13:17:49.998Z,13.70
2023-03-16T13:18:53.274Z,13.65
2023-03-16T13:20:30.816Z,13.61
2023-03-16T13:21:42.562Z,13.56
2023-03-16T13:22:50.122Z,13.50
2023-03-16T13:24:23.096Z,13.48
2023-03-16T13:25:30.879Z,13.49
2023-03-16T13:26:42.182Z,13.47
2023-03-16T13:27:47.206Z,13.47
2023-03-16T13:28:55.051Z,13.50
2023-03-16T13:30:02.360Z,13.56
2023-03-16T13:31:07.088Z,13.64
2023-03-16T13:32:17.755Z,13.70
2023-03-16T13:33:23.449Z,13.72
2023-03-16T13:34:36.072Z,13.79
2023-03-16T13:35:41.050Z,13.87
2023-03-16T13:36:45.435Z,14.06
2023-03-16T13:37:49.377Z,14.16
2023-03-16T13:39:05.198Z,14.18
2023-03-16T13:40:23.130Z,14.21
2023-03-16T13:41:25.258Z,14.25
2023-03-16T13:42:32.623Z,14.26
2023-03-16T13:43:39.008Z,14.23
2023-03-16T13:44:41.597Z,14.18
2023-03-16T13:45:43.810Z,14.15
2023-03-16T13:46:49.536Z,14.12
2023-03-16T13:47:51.789Z,14.05
2023-03-16T13:48:53.662Z,13.98
2023-03-16T13:49:58.386Z,13.91
2023-03-16T13:51:00.302Z,13.82
2023-03-16T13:52:05.944Z,13.76
2023-03-16T13:53:25.812Z,13.71
2023-03-16T13:54:30.144Z,13.66
2023-03-16T13:55:35.626Z,13.65
2023-03-16T13:56:40.229Z,13.65
2023-03-16T13:57:44.433Z,13.67
2023-03-16T13:58:49.505Z,13.68
2023-03-16T13:59:59.076Z,13.69
2023-03-16T14:01:03.543Z,13.72
2023-03-16T14:02:18.156Z,13.78
2023-03-16T14:03:22.361Z,13.89
2023-03-16T14:04:26.550Z,13.97
2023-03-16T14:05:31.191Z,14.01
2023-03-16T14:06:35.363Z,14.05
2023-03-16T14:07:38.793Z,14.09
2023-03-16T14:08:42.582Z,14.11
2023-03-16T14:09:49.783Z,14.14
2023-03-16T14:10:54.963Z,14.18
2023-03-16T14:11:57.757Z,14.23
2023-03-16T14:13:33.004Z,14.25
2023-03-16T14:14:41.315Z,14.28
2023-03-16T14:15:45.514Z,14.30
2023-03-16T14:16:47.635Z,14.32
2023-03-16T14:17:49.622Z,14.34
2023-03-16T14:18:58.631Z,14.36
2023-03-16T14:20:00.956Z,14.39
2023-03-16T14:21:10.120Z,14.42
2023-03-16T14:22:17.846Z,14.44
2023-03-16T14:23:24.694Z,14.48
2023-03-16T14:24:34.312Z,14.50
2023-03-16T14:25:36.179Z,14.52
2023-03-16T14:26:47.892Z,14.52
2023-03-16T14:27:58.956Z,14.52
2023-03-16T14:29:26.456Z,14.52
2023-03-16T14:30:30.445Z,14.50